createdAt,value
2023-04-16T00:02:14.827Z,63.53
2023-04-16T00:04:42.067Z,62.20
2023-04-16T00:07:09.277Z,61.17
2023-04-16T00:09:36.346Z,59.13
2023-04-16T00:12:04.282Z,62.40
2023-04-16T00:14:31.311Z,60.65
2023-04-16T00:16:58.373Z,60.72
2023-04-16T00:19:25.551Z,65.30
2023-04-16T00:21:52.434Z,62.75
2023-04-16T00:24:19.470Z,64.07
2023-04-16T00:26:46.515Z,65.25
2023-04-16T00:29:13.839Z,67.03
2023-04-16T00:31:40.869Z,70.60
2023-04-16T00:34:13.786Z,68.63
2023-04-16T00:36:40.816Z,71.68
2023-04-16T00:39:08.105Z,65.22
2023-04-16T00:41:35.433Z,71.55
2023-04-16T00:44:02.389Z,65.82
2023-04-16T00:46:29.629Z,68.10
2023-04-16T00:48:57.466Z,67.27
2023-04-16T00:51:24.793Z,64.85
2023-04-16T00:53:52.517Z,70.43
2023-04-16T00:56:20.655Z,71.90
2023-04-16T00:58:48.930Z,68.32
2023-04-16T01:01:16.324Z,69.53
2023-04-16T01:03:48.745Z,69.53
2023-04-16T01:06:18.215Z,71.53
2023-04-16T01:08:46.664Z,68.60
2023-04-16T01:11:15.459Z,67.55
2023-04-16T01:13:43.066Z,72.28
2023-04-16T01:16:11.694Z,73.97
2023-04-16T01:18:39.349Z,73.35
2023-04-16T01:21:06.766Z,66.55
2023-04-16T01:23:33.819Z,67.00
2023-04-16T01:26:01.024Z,69.35
2023-04-16T01:28:27.959Z,65.93
2023-04-16T01:30:55.030Z,68.63
2023-04-16T01:33:54.626Z,63.60
2023-04-16T01:36:22.991Z,59.92
2023-04-16T01:38:50.160Z,63.83
2023-04-16T01:41:17.506Z,65.28
2023-04-16T01:43:44.498Z,64.10
2023-04-16T01:46:20.507Z,67.07
2023-04-16T01:48:48.380Z,61.13
2023-04-16T01:51:15.464Z,66.17
2023-04-16T01:53:42.466Z,63.95
2023-04-16T01:56:09.422Z,62.42
2023-04-16T01:58:36.508Z,67.97
2023-04-16T02:01:05.883Z,67.35
2023-04-16T02:03:33.608Z,65.35
2023-04-16T02:06:01.695Z,65.03
2023-04-16T02:10:57.036Z,65.25
2023-04-16T02:13:26.143Z,64.13
2023-04-16T02:15:53.586Z,69.25
2023-04-16T02:18:43.575Z,65.50
2023-04-16T02:21:12.872Z,71.40
2023-04-16T02:23:41.380Z,70.20
2023-04-16T02:28:35.382Z,60.47
2023-04-16T02:31:02.468Z,64.55
2023-04-16T02:33:36.134Z,63.28
2023-04-16T02:36:04.288Z,66.00
2023-04-16T02:38:31.293Z,45.70
2023-04-16T02:40:58.976Z,61.55
2023-04-16T02:43:25.971Z,64.88
2023-04-16T02:45:52.882Z,59.05
2023-04-16T02:48:19.945Z,65.45
2023-04-16T02:50:46.817Z,58.80
2023-04-16T02:53:13.810Z,55.63
2023-04-16T02:55:40.873Z,60.47
2023-04-16T02:58:07.994Z,63.75
2023-04-16T03:00:34.856Z,58.50
2023-04-16T03:03:01.922Z,61.33
2023-04-16T03:05:28.823Z,60.85
2023-04-16T03:07:57.226Z,64.38
2023-04-16T03:10:24.392Z,64.25
2023-04-16T03:12:51.441Z,68.90
2023-04-16T03:15:18.659Z,69.40
2023-04-16T03:17:46.143Z,73.77
2023-04-16T03:20:17.388Z,76.68
2023-04-16T03:22:44.742Z,69.65
2023-04-16T03:25:13.703Z,71.50
2023-04-16T03:27:41.243Z,73.93
2023-04-16T03:30:11.114Z,77.45
2023-04-16T03:32:38.762Z,74.47
2023-04-16T03:35:09.790Z,72.10
2023-04-16T03:37:37.944Z,78.50
2023-04-16T03:40:07.099Z,76.35
2023-04-16T03:42:34.606Z,76.45
2023-04-16T03:47:30.669Z,78.15
2023-04-16T03:50:01.974Z,77.47
2023-04-16T03:52:29.406Z,79.88
2023-04-16T03:54:57.666Z,82.85
2023-04-16T03:57:27.676Z,82.47
2023-04-16T04:00:00.022Z,84.68
2023-04-16T04:02:30.437Z,79.65
2023-04-16T04:04:57.750Z,87.72
2023-04-16T04:07:24.880Z,81.50
2023-04-16T04:09:52.901Z,87.22
2023-04-16T04:12:20.074Z,89.18
2023-04-16T04:17:15.228Z,89.38
2023-04-16T04:19:50.641Z,90.47
2023-04-16T04:22:18.789Z,86.90
2023-04-16T04:24:46.077Z,89.65
2023-04-16T04:27:14.948Z,87.60
2023-04-16T04:29:42.485Z,87.43
2023-04-16T04:32:09.606Z,83.47
2023-04-16T04:34:38.634Z,87.93
2023-04-16T04:37:08.845Z,91.20
2023-04-16T04:39:36.887Z,87.72
2023-04-16T04:42:04.972Z,84.32
2023-04-16T04:47:01.012Z,83.90
2023-04-16T04:49:31.697Z,81.20
2023-04-16T04:51:59.237Z,80.65
2023-04-16T04:54:26.325Z,83.63
2023-04-16T04:56:54.346Z,80.13
2023-04-16T04:59:21.899Z,78.13
2023-04-16T05:01:52.041Z,83.72
2023-04-16T05:04:20.314Z,88.68
2023-04-16T05:06:47.849Z,81.55
2023-04-16T05:09:14.932Z,80.10
2023-04-16T05:11:42.219Z,88.60
2023-04-16T05:14:09.442Z,84.47
2023-04-16T05:16:37.253Z,86.00
2023-04-16T05:19:04.895Z,87.95
2023-04-16T05:21:31.869Z,88.68
2023-04-16T05:23:59.255Z,86.38
2023-04-16T05:26:26.317Z,91.40
2023-04-16T05:28:59.306Z,97.82
2023-04-16T05:31:26.660Z,88.30
2023-04-16T05:33:53.628Z,88.57
2023-04-16T05:36:20.658Z,91.43
2023-04-16T05:38:47.635Z,90.28
2023-04-16T05:41:14.774Z,90.85
2023-04-16T05:43:41.808Z,90.95
2023-04-16T05:46:08.848Z,94.32
2023-04-16T05:48:36.150Z,86.25
2023-04-16T05:51:03.231Z,88.30
2023-04-16T05:53:30.458Z,82.93
2023-04-16T05:55:57.535Z,82.47
2023-04-16T05:58:24.654Z,78.30
2023-04-16T06:00:52.262Z,88.10
2023-04-16T06:03:19.363Z,79.00
2023-04-16T06:05:46.562Z,78.85
2023-04-16T06:08:14.782Z,78.28
2023-04-16T06:10:42.487Z,68.03
2023-04-16T06:13:09.564Z,73.40
2023-04-16T06:15:37.529Z,66.05
2023-04-16T06:18:06.437Z,71.72
2023-04-16T06:20:37.997Z,71.10
2023-04-16T06:23:05.583Z,71.78
2023-04-16T06:25:33.022Z,73.22
2023-04-16T06:28:00.437Z,66.05
2023-04-16T06:30:31.437Z,64.73
2023-04-16T06:32:58.914Z,69.47
2023-04-16T06:35:29.266Z,67.55
2023-04-16T06:37:56.918Z,61.80
2023-04-16T06:40:24.094Z,60.28
2023-04-16T06:42:51.289Z,64.15
2023-04-16T06:45:18.779Z,58.73
2023-04-16T06:47:46.251Z,58.63
2023-04-16T06:50:13.148Z,60.47
2023-04-16T06:52:40.514Z,57.80
2023-04-16T06:55:09.822Z,59.43
2023-04-16T06:57:37.660Z,58.20
2023-04-16T07:00:05.324Z,60.15
2023-04-16T07:02:32.585Z,56.90
2023-04-16T07:04:59.833Z,55.83
2023-04-16T07:07:27.180Z,52.88
2023-04-16T07:09:54.124Z,51.27
2023-04-16T07:12:22.667Z,51.05
2023-04-16T07:14:50.200Z,49.78
2023-04-16T07:17:17.242Z,52.47
2023-04-16T07:19:44.591Z,47.30
2023-04-16T07:22:11.823Z,51.38
2023-04-16T07:24:38.837Z,47.90
2023-04-16T07:27:06.080Z,50.35
2023-04-16T07:29:33.038Z,50.50
2023-04-16T07:32:00.453Z,51.50
2023-04-16T07:34:27.547Z,51.25
2023-04-16T07:36:55.966Z,46.10
2023-04-16T07:39:22.945Z,52.25
2023-04-16T07:41:50.406Z,51.40
2023-04-16T07:44:17.511Z,50.03
2023-04-16T07:46:47.337Z,46.35
2023-04-16T07:49:15.060Z,51.15
2023-04-16T07:51:45.509Z,51.27
2023-04-16T07:54:12.451Z,51.40
2023-04-16T07:56:39.440Z,49.60
2023-04-16T07:59:21.858Z,55.67
2023-04-16T08:01:54.223Z,50.90
2023-04-16T08:04:25.759Z,50.83
2023-04-16T08:06:54.041Z,47.35
2023-04-16T08:09:22.564Z,45.30
2023-04-16T08:11:49.994Z,45.30
2023-04-16T08:14:17.777Z,40.38
2023-04-16T08:16:45.089Z,43.38
2023-04-16T08:19:12.505Z,42.47
2023-04-16T08:21:39.920Z,37.78
2023-04-16T08:24:07.373Z,39.93
2023-04-16T08:26:34.477Z,38.83
2023-04-16T08:29:01.527Z,35.58
2023-04-16T08:31:28.811Z,34.85
2023-04-16T08:33:55.965Z,37.23
2023-04-16T08:36:22.929Z,33.53
2023-04-16T08:38:50.699Z,33.05
2023-04-16T08:41:18.098Z,36.20
2023-04-16T08:43:49.055Z,32.40
2023-04-16T08:46:23.115Z,29.73
2023-04-16T08:48:55.320Z,31.20
2023-04-16T08:51:24.116Z,32.85
2023-04-16T08:53:57.877Z,30.67
2023-04-16T08:56:26.609Z,31.55
2023-04-16T08:58:54.979Z,29.90
2023-04-16T09:01:22.795Z,28.88
2023-04-16T09:03:53.321Z,28.90
2023-04-16T09:06:27.331Z,32.45
2023-04-16T09:08:55.572Z,31.55
2023-04-16T09:11:22.798Z,36.22
2023-04-16T09:13:49.727Z,33.38
2023-04-16T09:16:18.571Z,30.80
2023-04-16T09:18:47.888Z,33.63
2023-04-16T09:21:15.883Z,30.02
2023-04-16T09:23:43.674Z,31.45
2023-04-16T09:26:10.732Z,28.80
2023-04-16T09:28:43.654Z,28.65
2023-04-16T09:31:14.836Z,28.45
2023-04-16T09:33:43.815Z,28.35
2023-04-16T09:36:11.270Z,29.00
2023-04-16T09:38:52.217Z,30.85
2023-04-16T09:41:23.333Z,27.55
2023-04-16T09:44:01.880Z,25.27
2023-04-16T09:46:35.211Z,26.15
2023-04-16T09:49:20.483Z,26.40
2023-04-16T09:51:51.175Z,26.80
2023-04-16T09:54:21.097Z,27.73
2023-04-16T09:56:48.052Z,23.63
2023-04-16T09:59:22.695Z,23.88
2023-04-16T10:01:51.082Z,25.70
2023-04-16T10:04:18.502Z,25.77
2023-04-16T10:07:02.079Z,26.97
2023-04-16T10:09:33.238Z,24.63
2023-04-16T10:12:00.688Z,24.98
2023-04-16T10:14:27.642Z,25.77
2023-04-16T10:16:56.201Z,23.73
2023-04-16T10:19:24.506Z,22.05
2023-04-16T10:24:19.214Z,24.70
2023-04-16T10:26:49.346Z,25.47
2023-04-16T10:29:16.581Z,23.17
2023-04-16T10:31:43.785Z,23.52
2023-04-16T10:34:13.193Z,24.60
2023-04-16T10:36:40.859Z,23.00
2023-04-16T10:39:14.782Z,20.77
2023-04-16T10:41:45.234Z,22.88
2023-04-16T10:44:12.872Z,26.42
2023-04-16T10:46:45.370Z,25.60
2023-04-16T10:49:15.457Z,28.33
2023-04-16T10:51:52.192Z,27.88
2023-04-16T10:54:29.946Z,30.42
2023-04-16T10:57:00.779Z,29.70
2023-04-16T10:59:35.354Z,29.30
2023-04-16T11:02:08.659Z,28.30
2023-04-16T11:04:41.903Z,29.17
2023-04-16T11:07:13.954Z,29.63
2023-04-16T11:10:06.736Z,28.02
2023-04-16T11:12:39.227Z,27.77
2023-04-16T11:15:11.899Z,27.33
2023-04-16T11:17:46.410Z,29.00
2023-04-16T11:20:26.321Z,29.05
2023-04-16T11:22:55.484Z,28.90
2023-04-16T11:25:29.584Z,27.75
2023-04-16T11:27:59.835Z,28.75
2023-04-16T11:30:37.707Z,29.67
2023-04-16T11:33:12.280Z,30.83
2023-04-16T11:35:40.023Z,29.10
2023-04-16T11:38:08.059Z,31.40
2023-04-16T11:40:36.381Z,29.30
2023-04-16T11:43:14.733Z,27.23
2023-04-16T11:46:02.623Z,25.65
2023-04-16T11:48:55.503Z,25.40
2023-04-16T11:51:23.804Z,25.45
2023-04-16T11:53:56.325Z,25.02
2023-04-16T11:56:38.407Z,24.30
2023-04-16T11:59:27.510Z,27.70
2023-04-16T12:01:55.922Z,25.63
2023-04-16T12:04:33.379Z,26.13
2023-04-16T12:07:16.948Z,22.33
2023-04-16T12:09:48.299Z,21.05
2023-04-16T12:12:30.838Z,22.65
2023-04-16T12:15:04.104Z,21.15
2023-04-16T12:17:36.542Z,22.85
2023-04-16T12:20:09.879Z,23.20
2023-04-16T12:22:48.388Z,22.08
2023-04-16T12:25:17.393Z,20.77
2023-04-16T12:27:54.053Z,21.17
2023-04-16T12:30:28.500Z,21.65
2023-04-16T12:33:19.108Z,24.75
2023-04-16T12:35:46.577Z,21.00
2023-04-16T12:38:15.313Z,25.08
2023-04-16T12:40:42.446Z,21.98
2023-04-16T12:43:12.610Z,21.23
2023-04-16T12:45:40.603Z,22.85
2023-04-16T12:48:08.480Z,20.15
2023-04-16T12:50:35.785Z,20.75
2023-04-16T12:53:03.774Z,21.42
2023-04-16T12:55:30.936Z,22.95
2023-04-16T12:57:58.176Z,21.10
2023-04-16T13:00:25.530Z,21.57
2023-04-16T13:02:53.118Z,24.13
2023-04-16T13:05:22.256Z,21.38
2023-04-16T13:07:54.574Z,19.52
2023-04-16T13:10:23.655Z,21.63
2023-04-16T13:12:50.873Z,22.67
2023-04-16T13:15:18.184Z,19.70
2023-04-16T13:17:45.385Z,22.83
2023-04-16T13:20:12.784Z,25.88
2023-04-16T13:22:39.924Z,17.90
2023-04-16T13:25:07.596Z,19.73
2023-04-16T13:27:34.609Z,18.05
2023-04-16T13:30:01.851Z,18.30
2023-04-16T13:32:29.251Z,18.50
2023-04-16T13:34:56.593Z,17.83
2023-04-16T13:37:23.770Z,18.93
2023-04-16T13:39:50.905Z,19.20
2023-04-16T13:42:18.069Z,19.35
2023-04-16T13:44:49.176Z,20.50
2023-04-16T13:47:17.024Z,20.02
2023-04-16T13:49:44.272Z,21.48
2023-04-16T13:52:11.463Z,24.65
2023-04-16T13:54:38.591Z,21.23
2023-04-16T13:57:06.464Z,23.85
2023-04-16T13:59:33.645Z,21.90
2023-04-16T14:02:01.002Z,24.67
2023-04-16T14:04:28.257Z,23.92
2023-04-16T14:06:55.365Z,20.60
2023-04-16T14:09:22.321Z,23.20
2023-04-16T14:11:49.503Z,22.70
2023-04-16T14:14:16.593Z,22.50
2023-04-16T14:16:44.067Z,23.50
2023-04-16T14:19:11.650Z,21.63
2023-04-16T14:21:38.703Z,22.90
2023-04-16T14:24:06.276Z,21.33
2023-04-16T14:26:33.430Z,19.27
2023-04-16T14:29:01.351Z,18.08
2023-04-16T14:31:28.680Z,18.80
2023-04-16T14:33:55.916Z,20.30
2023-04-16T14:36:23.196Z,19.90
2023-04-16T14:38:50.155Z,17.53
2023-04-16T14:41:17.089Z,19.63
2023-04-16T14:43:44.427Z,18.83
2023-04-16T14:46:11.550Z,21.43
2023-04-16T14:48:38.565Z,17.35
2023-04-16T14:51:07.312Z,16.88
2023-04-16T14:53:36.226Z,19.05
2023-04-16T14:56:03.725Z,18.60
2023-04-16T14:58:31.489Z,15.90
2023-04-16T15:00:59.724Z,19.23
2023-04-16T15:03:27.482Z,18.17
2023-04-16T15:05:55.961Z,19.02
2023-04-16T15:08:23.778Z,22.48
2023-04-16T15:10:51.687Z,20.35
2023-04-16T15:13:20.897Z,19.90
2023-04-16T15:15:48.228Z,21.85
2023-04-16T15:18:16.479Z,21.15
2023-04-16T15:20:43.950Z,21.88
2023-04-16T15:23:11.056Z,22.77
2023-04-16T15:25:38.329Z,20.73
2023-04-16T15:28:06.589Z,19.65
2023-04-16T15:30:33.641Z,19.65
2023-04-16T15:33:01.056Z,17.87
2023-04-16T15:35:28.300Z,14.77
2023-04-16T15:37:56.452Z,15.43
2023-04-16T15:45:19.282Z,11.52
2023-04-16T15:47:51.034Z,13.73
2023-04-16T15:50:19.217Z,10.77
2023-04-16T15:52:48.445Z,11.90
2023-04-16T15:55:16.902Z,10.73
2023-04-16T15:57:44.578Z,7.70
2023-04-16T16:00:19.675Z,9.02
2023-04-16T16:02:47.555Z,11.43
2023-04-16T16:05:16.745Z,8.82
2023-04-16T16:07:44.173Z,9.93
2023-04-16T16:10:13.903Z,8.52
2023-04-16T16:12:41.587Z,11.40
2023-04-16T16:15:11.070Z,9.80
2023-04-16T16:17:39.439Z,8.50
2023-04-16T16:22:41.882Z,9.45
2023-04-16T16:25:10.499Z,8.32
2023-04-16T16:27:37.781Z,8.73
2023-04-16T16:30:07.311Z,8.57
2023-04-16T16:32:34.442Z,7.53
2023-04-16T16:35:01.528Z,8.25
2023-04-16T16:37:29.248Z,7.97
2023-04-16T16:39:56.434Z,11.18
2023-04-16T16:42:23.777Z,8.75
2023-04-16T16:44:55.388Z,8.52
2023-04-16T16:47:24.927Z,8.25
2023-04-16T16:49:52.220Z,7.90
2023-04-16T16:52:22.130Z,9.25
2023-04-16T16:54:49.168Z,8.02
2023-04-16T16:57:16.218Z,8.50
2023-04-16T16:59:43.413Z,8.23
2023-04-16T17:02:10.872Z,7.80
2023-04-16T17:04:38.274Z,7.22
2023-04-16T17:07:06.304Z,8.65
2023-04-16T17:09:33.387Z,9.45
2023-04-16T17:12:00.865Z,8.50
2023-04-16T17:14:27.860Z,10.55
2023-04-16T17:16:55.047Z,11.55
2023-04-16T17:19:22.278Z,10.63
2023-04-16T17:21:50.383Z,10.93
2023-04-16T17:24:18.243Z,10.98
2023-04-16T17:26:45.293Z,9.70
2023-04-16T17:29:12.302Z,9.18
2023-04-16T17:31:39.444Z,9.32
2023-04-16T17:34:06.593Z,9.77
2023-04-16T17:36:33.620Z,10.60
2023-04-16T17:39:01.092Z,10.38
2023-04-16T17:41:28.757Z,10.82
2023-04-16T17:43:56.059Z,10.00
2023-04-16T17:46:23.468Z,11.27
2023-04-16T17:48:50.985Z,11.88
2023-04-16T17:51:18.120Z,10.20
2023-04-16T17:53:45.649Z,10.33
2023-04-16T17:56:14.497Z,10.35
2023-04-16T17:58:41.518Z,11.55
2023-04-16T18:01:09.086Z,10.32
2023-04-16T18:03:37.419Z,11.07
2023-04-16T18:06:05.556Z,15.93
2023-04-16T18:08:35.084Z,12.80
2023-04-16T18:11:07.493Z,12.30
2023-04-16T18:13:36.163Z,12.93
2023-04-16T18:16:03.706Z,12.10
2023-04-16T18:18:30.969Z,15.07
2023-04-16T18:21:00.991Z,13.60
2023-04-16T18:23:28.834Z,13.23
2023-04-16T18:25:56.256Z,15.75
2023-04-16T18:28:24.606Z,15.90
2023-04-16T18:30:59.013Z,18.58
2023-04-16T18:33:49.991Z,18.65
2023-04-16T18:38:57.017Z,17.60
2023-04-16T18:41:32.851Z,18.00
2023-04-16T18:44:00.053Z,19.10
2023-04-16T18:46:27.538Z,17.48
2023-04-16T18:48:54.940Z,18.55
2023-04-16T18:51:22.264Z,18.88
2023-04-16T18:53:49.661Z,20.42
2023-04-16T18:56:16.976Z,20.08
2023-04-16T18:58:44.147Z,21.95
2023-04-16T19:01:13.267Z,22.35
2023-04-16T19:03:40.746Z,21.45
2023-04-16T19:06:08.112Z,21.70
2023-04-16T19:08:35.272Z,22.67
2023-04-16T19:11:02.335Z,22.73
2023-04-16T19:13:30.449Z,22.25
2023-04-16T19:18:26.950Z,22.92
2023-04-16T19:21:01.203Z,23.42
2023-04-16T19:23:28.756Z,23.63
2023-04-16T19:25:56.985Z,24.02
2023-04-16T19:28:27.428Z,25.15
2023-04-16T19:30:54.927Z,22.23
2023-04-16T19:33:22.044Z,25.52
2023-04-16T19:35:49.136Z,23.63
2023-04-16T19:38:16.296Z,23.27
2023-04-16T19:40:48.303Z,20.48
2023-04-16T19:43:15.502Z,22.45
2023-04-16T19:45:53.457Z,20.95
2023-04-16T19:48:21.662Z,20.48
2023-04-16T19:50:48.859Z,19.13
2023-04-16T19:53:17.293Z,23.23
2023-04-16T19:55:44.421Z,20.05
2023-04-16T19:58:11.588Z,19.50
2023-04-16T20:00:41.147Z,20.63
2023-04-16T20:03:08.463Z,20.05
2023-04-16T20:05:35.661Z,17.65
2023-04-16T20:08:02.967Z,19.75
2023-04-16T20:10:31.635Z,21.03
2023-04-16T20:12:59.052Z,21.95
2023-04-16T20:15:26.805Z,21.67
2023-04-16T20:17:56.403Z,22.63
2023-04-16T20:20:23.677Z,24.38
2023-04-16T20:22:51.665Z,19.67
2023-04-16T20:25:19.846Z,20.83
2023-04-16T20:27:48.951Z,19.77
2023-04-16T20:30:16.460Z,20.35
2023-04-16T20:32:44.802Z,19.98
2023-04-16T20:35:12.342Z,19.05
2023-04-16T20:37:39.844Z,18.63
2023-04-16T20:40:09.513Z,21.05
2023-04-16T20:42:36.674Z,19.65
2023-04-16T20:45:04.933Z,18.08
2023-04-16T20:47:35.270Z,18.67
2023-04-16T20:50:03.857Z,20.13
2023-04-16T20:52:31.029Z,16.38
2023-04-16T20:54:59.231Z,17.13
2023-04-16T20:57:28.927Z,15.68
2023-04-16T20:59:56.822Z,15.73
2023-04-16T21:02:24.739Z,18.55
2023-04-16T21:04:52.473Z,15.82
2023-04-16T21:07:20.114Z,16.90
2023-04-16T21:09:48.188Z,17.73
2023-04-16T21:12:16.591Z,16.65
2023-04-16T21:14:45.677Z,15.85
2023-04-16T21:17:14.355Z,16.48
2023-04-16T21:19:42.791Z,18.10
2023-04-16T21:22:11.683Z,15.18
2023-04-16T21:24:40.004Z,19.92
2023-04-16T21:27:08.633Z,17.17
2023-04-16T21:29:37.430Z,22.90
2023-04-16T21:32:06.812Z,15.48
2023-04-16T21:34:35.558Z,15.80
2023-04-16T21:37:04.756Z,16.92
2023-04-16T21:39:33.655Z,18.27
2023-04-16T21:42:01.862Z,16.67
2023-04-16T21:44:28.894Z,15.95
2023-04-16T21:46:56.132Z,16.98
2023-04-16T21:49:23.070Z,17.03
2023-04-16T21:51:58.978Z,17.33
2023-04-16T21:54:26.196Z,16.48
2023-04-16T21:56:53.133Z,16.95
2023-04-16T21:59:21.956Z,15.50
2023-04-16T22:01:50.483Z,17.48
2023-04-16T22:04:18.410Z,18.95
2023-04-16T22:06:46.596Z,16.40
2023-04-16T22:11:42.009Z,16.48
2023-04-16T22:14:09.319Z,16.75
2023-04-16T22:16:37.473Z,15.90
2023-04-16T22:19:04.692Z,17.48
2023-04-16T22:21:35.272Z,19.00
2023-04-16T22:24:02.977Z,16.30
2023-04-16T22:26:30.091Z,20.85
2023-04-16T22:28:57.129Z,19.17
2023-04-16T22:31:27.059Z,18.00
2023-04-16T22:33:57.839Z,19.00
2023-04-16T22:36:27.351Z,21.77
2023-04-16T22:38:55.912Z,19.15
2023-04-16T22:41:23.660Z,20.92
2023-04-16T22:43:52.553Z,22.23
2023-04-16T22:46:20.570Z,21.95
2023-04-16T22:48:48.698Z,19.40
2023-04-16T22:51:15.808Z,21.17
2023-04-16T22:53:42.690Z,20.10
2023-04-16T22:56:11.068Z,22.45
2023-04-16T22:58:40.033Z,18.77
2023-04-16T23:01:08.806Z,21.33
2023-04-16T23:03:38.020Z,20.23
2023-04-16T23:06:07.456Z,22.83
2023-04-16T23:08:36.317Z,21.48
2023-04-16T23:11:06.014Z,19.25
2023-04-16T23:13:34.437Z,20.55
2023-04-16T23:16:04.008Z,19.80
2023-04-16T23:18:36.390Z,21.67
2023-04-16T23:21:04.565Z,21.70
2023-04-16T23:23:33.884Z,21.30
2023-04-16T23:26:03.360Z,21.20
2023-04-16T23:28:31.669Z,20.73
2023-04-16T23:31:00.139Z,22.05
2023-04-16T23:33:27.916Z,22.20
2023-04-16T23:35:57.009Z,22.13
2023-04-16T23:38:25.620Z,20.88
2023-04-16T23:40:52.768Z,23.00
2023-04-16T23:43:19.988Z,22.45
2023-04-16T23:45:47.800Z,21.00
2023-04-16T23:50:43.598Z,24.30
2023-04-16T23:55:39.796Z,23.45
2023-04-16T23:58:13.570Z,23.08
